createdAt,value
2022-10-15T00:00:17.865Z,98622.31
2022-10-15T00:02:44.356Z,98619.59
2022-10-15T00:05:10.908Z,98616.44
2022-10-15T00:07:37.488Z,98615.66
2022-10-15T00:10:04.298Z,98625.44
2022-10-15T00:12:30.857Z,98620.31
2022-10-15T00:14:57.402Z,98619.06
2022-10-15T00:17:24.345Z,98616.00
2022-10-15T00:19:51.146Z,98612.13
2022-10-15T00:22:17.871Z,98619.88
2022-10-15T00:24:44.421Z,98628.50
2022-10-15T00:27:10.931Z,98635.53
2022-10-15T00:29:37.448Z,98637.13
2022-10-15T00:32:04.027Z,98641.69
2022-10-15T00:34:30.805Z,98658.06
2022-10-15T00:36:57.326Z,98651.00
2022-10-15T00:39:24.071Z,98652.59
2022-10-15T00:41:50.626Z,98648.19
2022-10-15T00:44:26.801Z,98648.13
2022-10-15T00:47:17.921Z,98653.09
2022-10-15T00:49:55.453Z,98657.31
2022-10-15T00:52:37.289Z,98665.38
2022-10-15T00:55:12.520Z,98668.09
2022-10-15T00:57:40.355Z,98656.06
2022-10-15T01:00:11.255Z,98664.59
2022-10-15T01:02:38.071Z,98666.97
2022-10-15T01:05:05.478Z,98660.38
2022-10-15T01:07:31.985Z,98659.59
2022-10-15T01:09:58.705Z,98672.88
2022-10-15T01:12:25.445Z,98665.38
2022-10-15T01:15:05.306Z,98669.25
2022-10-15T01:17:48.133Z,98667.66
2022-10-15T01:20:31.791Z,98669.97
2022-10-15T01:23:07.434Z,98676.22
2022-10-15T01:25:55.835Z,98671.09
2022-10-15T01:28:53.020Z,98682.81
2022-10-15T01:31:42.078Z,98674.97
2022-10-15T01:34:25.172Z,98679.97
2022-10-15T01:37:03.885Z,98685.44
2022-10-15T01:39:59.478Z,98686.91
2022-10-15T01:42:36.119Z,98672.84
2022-10-15T01:45:07.650Z,98696.81
2022-10-15T01:47:37.996Z,98691.38
2022-10-15T01:50:06.784Z,98684.34
2022-10-15T01:52:37.433Z,98682.75
2022-10-15T01:55:07.093Z,98685.41
2022-10-15T01:57:35.041Z,98691.19
2022-10-15T02:00:04.632Z,98684.84
2022-10-15T02:02:31.139Z,98686.75
2022-10-15T02:04:57.787Z,98683.97
2022-10-15T02:07:57.017Z,98679.09
2022-10-15T02:10:52.896Z,98687.59
2022-10-15T02:13:40.836Z,98690.59
2022-10-15T02:16:41.666Z,98690.59
2022-10-15T02:19:32.222Z,98689.59
2022-10-15T02:22:09.055Z,98692.31
2022-10-15T02:24:41.796Z,98702.44
2022-10-15T02:27:11.017Z,98697.31
2022-10-15T02:29:40.090Z,98698.13
2022-10-15T02:32:08.420Z,98697.31
2022-10-15T02:34:36.468Z,98696.09
2022-10-15T02:37:05.016Z,98703.00
2022-10-15T02:39:32.026Z,98699.03
2022-10-15T02:41:58.789Z,98704.03
2022-10-15T02:44:25.415Z,98695.41
2022-10-15T02:46:51.973Z,98713.59
2022-10-15T02:49:18.502Z,98711.09
2022-10-15T02:51:45.028Z,98716.00
2022-10-15T02:54:11.902Z,98716.69
2022-10-15T02:56:39.523Z,98713.50
2022-10-15T02:59:06.832Z,98715.78
2022-10-15T03:01:34.281Z,98716.47
2022-10-15T03:04:01.771Z,98714.53
2022-10-15T03:06:28.398Z,98723.13
2022-10-15T03:08:54.919Z,98723.50
2022-10-15T03:11:21.462Z,98720.19
2022-10-15T03:13:47.982Z,98728.22
2022-10-15T03:16:14.595Z,98725.41
2022-10-15T03:18:41.329Z,98721.56
2022-10-15T03:21:08.164Z,98722.25
2022-10-15T03:23:34.865Z,98716.31
2022-10-15T03:26:01.908Z,98721.75
2022-10-15T03:28:28.479Z,98715.88
2022-10-15T03:30:55.262Z,98718.59
2022-10-15T03:33:24.381Z,98719.72
2022-10-15T03:35:52.826Z,98725.16
2022-10-15T03:38:19.788Z,98729.03
2022-10-15T03:40:46.701Z,98713.06
2022-10-15T03:43:13.332Z,98719.63
2022-10-15T03:45:40.036Z,98712.59
2022-10-15T03:48:06.822Z,98709.06
2022-10-15T03:50:33.395Z,98711.78
2022-10-15T03:53:02.314Z,98706.34
2022-10-15T03:55:28.851Z,98700.47
2022-10-15T03:57:55.357Z,98703.88
2022-10-15T04:00:21.963Z,98695.25
2022-10-15T04:02:48.500Z,98693.66
2022-10-15T04:05:15.168Z,98691.28
2022-10-15T04:07:42.822Z,98697.97
2022-10-15T04:10:09.705Z,98702.97
2022-10-15T04:12:36.265Z,98702.97
2022-10-15T04:15:03.175Z,98712.25
2022-10-15T04:17:29.691Z,98706.81
2022-10-15T04:19:56.202Z,98704.09
2022-10-15T04:22:23.072Z,98704.09
2022-10-15T04:24:50.011Z,98708.41
2022-10-15T04:27:16.581Z,98714.19
2022-10-15T04:29:43.135Z,98717.72
2022-10-15T04:32:16.346Z,98722.34
2022-10-15T04:34:43.177Z,98712.25
2022-10-15T04:37:09.665Z,98719.28
2022-10-15T04:39:36.178Z,98722.47
2022-10-15T04:42:02.766Z,98717.03
2022-10-15T04:44:29.366Z,98722.91
2022-10-15T04:46:55.863Z,98718.59
2022-10-15T04:49:22.455Z,98726.41
2022-10-15T04:51:49.133Z,98728.81
2022-10-15T04:54:15.747Z,98709.06
2022-10-15T04:56:42.359Z,98719.16
2022-10-15T04:59:09.739Z,98721.09
2022-10-15T05:01:36.367Z,98705.91
2022-10-15T05:04:03.044Z,98708.19
2022-10-15T05:06:29.559Z,98715.88
2022-10-15T05:08:56.061Z,98711.78
2022-10-15T05:11:26.273Z,98708.03
2022-10-15T05:13:56.191Z,98712.13
2022-10-15T05:16:25.594Z,98720.81
2022-10-15T05:18:56.184Z,98716.75
2022-10-15T05:21:22.744Z,98719.34
2022-10-15T05:23:50.323Z,98721.88
2022-10-15T05:26:25.077Z,98720.56
2022-10-15T05:28:52.481Z,98714.41
2022-10-15T05:31:21.590Z,98714.19
2022-10-15T05:33:49.831Z,98712.34
2022-10-15T05:36:20.561Z,98718.59
2022-10-15T05:38:53.105Z,98719.16
2022-10-15T05:41:20.979Z,98722.13
2022-10-15T05:43:49.071Z,98712.09
2022-10-15T05:46:15.726Z,98712.22
2022-10-15T05:48:42.639Z,98725.22
2022-10-15T05:51:12.881Z,98724.56
2022-10-15T05:53:40.529Z,98725.00
2022-10-15T05:56:08.478Z,98718.84
2022-10-15T05:58:37.474Z,98722.47
2022-10-15T06:01:08.161Z,98732.66
2022-10-15T06:03:35.746Z,98723.34
2022-10-15T06:06:02.386Z,98725.38
2022-10-15T06:08:30.523Z,98730.94
2022-10-15T06:11:06.761Z,98726.41
2022-10-15T06:13:37.917Z,98721.38
2022-10-15T06:16:04.916Z,98717.75
2022-10-15T06:18:31.902Z,98719.72
2022-10-15T06:20:58.427Z,98724.88
2022-10-15T06:23:24.962Z,98725.84
2022-10-15T06:25:51.591Z,98728.34
2022-10-15T06:28:18.370Z,98734.03
2022-10-15T06:30:45.097Z,98735.06
2022-10-15T06:35:44.072Z,98742.59
2022-10-15T06:38:10.931Z,98736.34
2022-10-15T06:40:38.879Z,98744.44
2022-10-15T06:43:08.143Z,98743.97
2022-10-15T06:45:37.184Z,98746.91
2022-10-15T06:48:05.115Z,98751.47
2022-10-15T06:50:40.840Z,98751.03
2022-10-15T06:53:08.312Z,98748.75
2022-10-15T06:55:35.471Z,98746.03
2022-10-15T06:58:02.060Z,98745.25
2022-10-15T07:00:28.836Z,98744.81
2022-10-15T07:02:55.458Z,98741.19
2022-10-15T07:05:22.185Z,98736.41
2022-10-15T07:07:52.645Z,98740.63
2022-10-15T07:12:50.782Z,98743.78
2022-10-15T07:15:17.884Z,98737.97
2022-10-15T07:17:52.298Z,98748.78
2022-10-15T07:20:22.025Z,98750.38
2022-10-15T07:22:51.052Z,98755.81
2022-10-15T07:25:17.857Z,98757.41
2022-10-15T07:27:44.691Z,98751.97
2022-10-15T07:30:11.692Z,98746.50
2022-10-15T07:32:38.332Z,98746.63
2022-10-15T07:35:05.317Z,98746.72
2022-10-15T07:37:32.897Z,98753.06
2022-10-15T07:39:59.495Z,98741.47
2022-10-15T07:42:26.389Z,98745.44
2022-10-15T07:44:53.059Z,98738.75
2022-10-15T07:47:19.923Z,98742.09
2022-10-15T07:49:46.484Z,98744.69
2022-10-15T07:52:13.151Z,98736.38
2022-10-15T07:54:39.776Z,98744.41
2022-10-15T07:57:09.251Z,98736.34
2022-10-15T07:59:36.007Z,98743.94
2022-10-15T08:02:02.781Z,98733.09
2022-10-15T08:04:29.459Z,98741.03
2022-10-15T08:06:56.058Z,98742.41
2022-10-15T08:09:22.798Z,98742.16
2022-10-15T08:11:49.351Z,98739.06
2022-10-15T08:14:15.877Z,98751.78
2022-10-15T08:16:42.430Z,98748.88
2022-10-15T08:19:08.972Z,98751.47
2022-10-15T08:21:35.493Z,98747.59
2022-10-15T08:24:02.101Z,98737.56
2022-10-15T08:26:28.714Z,98746.94
2022-10-15T08:28:55.335Z,98735.38
2022-10-15T08:31:21.943Z,98741.25
2022-10-15T08:33:48.559Z,98737.81
2022-10-15T08:36:15.147Z,98738.59
2022-10-15T08:38:41.742Z,98738.97
2022-10-15T08:41:26.684Z,98739.03
2022-10-15T08:43:53.519Z,98742.66
2022-10-15T08:46:25.416Z,98741.09
2022-10-15T08:48:56.237Z,98736.31
2022-10-15T08:51:28.501Z,98738.59
2022-10-15T08:54:02.371Z,98735.09
2022-10-15T08:56:39.293Z,98741.00
2022-10-15T08:59:36.889Z,98729.03
2022-10-15T09:02:17.519Z,98728.66
2022-10-15T09:04:58.964Z,98738.09
2022-10-15T09:07:54.354Z,98738.16
2022-10-15T09:10:30.375Z,98733.50
2022-10-15T09:13:16.452Z,98737.38
2022-10-15T09:15:58.134Z,98729.19
2022-10-15T09:18:28.793Z,98738.16
2022-10-15T09:20:57.498Z,98742.03
2022-10-15T09:23:27.468Z,98733.41
2022-10-15T09:26:06.851Z,98737.28
2022-10-15T09:28:43.570Z,98737.28
2022-10-15T09:31:13.554Z,98744.75
2022-10-15T09:33:45.317Z,98741.31
2022-10-15T09:36:33.510Z,98736.78
2022-10-15T09:39:21.665Z,98747.16
2022-10-15T09:42:09.835Z,98740.19
2022-10-15T09:44:41.956Z,98737.63
2022-10-15T09:47:15.390Z,98743.38
2022-10-15T09:49:42.877Z,98744.56
2022-10-15T09:52:21.972Z,98744.84
2022-10-15T09:55:19.034Z,98738.53
2022-10-15T09:57:51.646Z,98742.84
2022-10-15T10:00:18.326Z,98743.97
2022-10-15T10:02:44.918Z,98740.72
2022-10-15T10:05:28.453Z,98735.19
2022-10-15T10:08:24.275Z,98744.59
2022-10-15T10:10:55.939Z,98749.72
2022-10-15T10:13:32.869Z,98748.56
2022-10-15T10:16:06.371Z,98747.84
2022-10-15T10:18:33.201Z,98755.59
2022-10-15T10:21:02.355Z,98743.19
2022-10-15T10:23:31.986Z,98752.16
2022-10-15T10:25:59.849Z,98755.72
2022-10-15T10:28:32.845Z,98754.72
2022-10-15T10:31:03.941Z,98758.41
2022-10-15T10:33:52.288Z,98762.22
2022-10-15T10:36:28.506Z,98762.13
2022-10-15T10:39:28.962Z,98758.94
2022-10-15T10:42:15.996Z,98757.53
2022-10-15T10:44:46.932Z,98755.69
2022-10-15T10:47:15.362Z,98754.19
2022-10-15T10:49:46.740Z,98756.22
2022-10-15T10:52:37.780Z,98761.59
2022-10-15T10:55:18.043Z,98766.69
2022-10-15T10:57:59.509Z,98768.63
2022-10-15T11:00:32.503Z,98771.72
2022-10-15T11:02:59.475Z,98770.13
2022-10-15T11:05:29.263Z,98769.44
2022-10-15T11:08:11.067Z,98770.69
2022-10-15T11:11:04.676Z,98762.13
2022-10-15T11:13:43.942Z,98770.56
2022-10-15T11:16:21.269Z,98766.69
2022-10-15T11:19:13.728Z,98761.22
2022-10-15T11:21:58.689Z,98759.75
2022-10-15T11:24:48.471Z,98761.34
2022-10-15T11:27:52.895Z,98756.66
2022-10-15T11:30:55.218Z,98765.28
2022-10-15T11:33:24.447Z,98762.63
2022-10-15T11:36:23.782Z,98761.88
2022-10-15T11:39:37.446Z,98774.63
2022-10-15T11:42:32.487Z,98759.81
2022-10-15T11:45:28.835Z,98752.63
2022-10-15T11:48:22.503Z,98764.94
2022-10-15T11:51:00.694Z,98759.66
2022-10-15T11:53:53.839Z,98756.47
2022-10-15T11:56:28.604Z,98749.63
2022-10-15T11:59:02.923Z,98748.81
2022-10-15T12:01:50.016Z,98739.19
2022-10-15T12:04:32.578Z,98732.09
2022-10-15T12:07:02.484Z,98744.06
2022-10-15T12:09:35.168Z,98731.63
2022-10-15T12:12:20.455Z,98731.25
2022-10-15T12:15:14.040Z,98727.38
2022-10-15T12:17:54.387Z,98732.25
2022-10-15T12:20:23.328Z,98739.44
2022-10-15T12:22:52.830Z,98730.19
2022-10-15T12:25:34.834Z,98736.50
2022-10-15T12:28:03.977Z,98734.59
2022-10-15T12:30:37.182Z,98738.91
2022-10-15T12:33:23.085Z,98720.19
2022-10-15T12:35:59.010Z,98725.66
2022-10-15T12:38:33.296Z,98730.50
2022-10-15T12:41:10.531Z,98732.84
2022-10-15T12:43:41.957Z,98744.66
2022-10-15T12:46:11.107Z,98735.75
2022-10-15T12:48:46.232Z,98731.41
2022-10-15T12:51:31.555Z,98716.13
2022-10-15T12:54:00.351Z,98712.25
2022-10-15T12:56:39.463Z,98716.59
2022-10-15T12:59:50.137Z,98722.06
2022-10-15T13:02:49.655Z,98714.28
2022-10-15T13:05:35.908Z,98720.13
2022-10-15T13:08:14.854Z,98711.56
2022-10-15T13:10:57.098Z,98715.16
2022-10-15T13:13:25.203Z,98711.28
2022-10-15T13:15:57.091Z,98718.47
2022-10-15T13:18:24.690Z,98726.09
2022-10-15T13:20:54.658Z,98723.81
2022-10-15T13:23:31.403Z,98722.50
2022-10-15T13:26:20.446Z,98719.59
2022-10-15T13:28:49.270Z,98714.84
2022-10-15T13:31:27.520Z,98712.50
2022-10-15T13:34:16.328Z,98703.88
2022-10-15T13:36:45.082Z,98719.47
2022-10-15T13:42:24.198Z,98711.47
2022-10-15T13:45:01.632Z,98713.91
2022-10-15T13:47:32.723Z,98714.81
2022-10-15T13:50:24.400Z,98725.78
2022-10-15T13:53:05.788Z,98718.19
2022-10-15T13:55:36.417Z,98712.97
2022-10-15T13:58:24.979Z,98706.69
2022-10-15T14:01:00.957Z,98709.84
2022-10-15T14:03:30.693Z,98714.47
2022-10-15T14:06:07.910Z,98708.81
2022-10-15T14:08:36.357Z,98712.56
2022-10-15T14:11:03.450Z,98707.38
2022-10-15T14:13:29.997Z,98716.66
2022-10-15T14:16:42.441Z,98725.94
2022-10-15T14:19:12.009Z,98715.44
2022-10-15T14:21:44.676Z,98715.44
2022-10-15T14:24:16.496Z,98709.25
2022-10-15T14:26:44.359Z,98702.19
2022-10-15T14:29:25.009Z,98717.75
2022-10-15T14:31:51.614Z,98710.25
2022-10-15T14:34:38.868Z,98708.59
2022-10-15T14:37:36.510Z,98710.03
2022-10-15T14:40:23.270Z,98713.41
2022-10-15T14:43:05.069Z,98723.53
2022-10-15T14:45:53.325Z,98719.22
2022-10-15T14:48:24.715Z,98721.91
2022-10-15T14:50:51.324Z,98720.38
2022-10-15T14:53:21.825Z,98736.13
2022-10-15T14:56:03.094Z,98716.63
2022-10-15T14:58:30.749Z,98719.03
2022-10-15T15:00:59.584Z,98718.31
2022-10-15T15:03:31.909Z,98726.22
2022-10-15T15:05:58.539Z,98736.00
2022-10-15T15:08:26.068Z,98732.91
2022-10-15T15:10:56.306Z,98739.88
2022-10-15T15:13:27.969Z,98747.38
2022-10-15T15:15:54.953Z,98744.66
2022-10-15T15:18:21.559Z,98747.66
2022-10-15T15:20:50.646Z,98749.53
2022-10-15T15:23:23.865Z,98746.63
2022-10-15T15:25:52.286Z,98741.47
2022-10-15T15:28:21.551Z,98741.91
2022-10-15T15:31:05.539Z,98739.59
2022-10-15T15:33:33.314Z,98743.19
2022-10-15T15:36:09.793Z,98731.97
2022-10-15T15:41:12.471Z,98729.38
2022-10-15T15:43:39.359Z,98726.28
2022-10-15T15:46:06.179Z,98734.50
2022-10-15T15:48:32.827Z,98731.34
2022-10-15T15:51:02.658Z,98740.59
2022-10-15T15:53:29.593Z,98743.28
2022-10-15T15:55:56.147Z,98747.94
2022-10-15T15:58:22.662Z,98746.34
2022-10-15T16:00:49.231Z,98756.06
2022-10-15T16:03:15.779Z,98751.31
2022-10-15T16:05:42.689Z,98757.84
2022-10-15T16:08:10.443Z,98760.06
2022-10-15T16:10:37.043Z,98749.41
2022-10-15T16:13:03.785Z,98754.78
2022-10-15T16:15:30.339Z,98755.50
2022-10-15T16:17:56.878Z,98767.88
2022-10-15T16:20:23.410Z,98770.06
2022-10-15T16:22:53.719Z,98773.84
2022-10-15T16:25:22.530Z,98764.78
2022-10-15T16:27:51.786Z,98771.28
2022-10-15T16:30:19.323Z,98772.25
2022-10-15T16:32:46.167Z,98776.75
2022-10-15T16:35:12.745Z,98775.88
2022-10-15T16:37:39.302Z,98771.91
2022-10-15T16:40:06.562Z,98780.34
2022-10-15T16:42:33.073Z,98781.84
2022-10-15T16:44:59.578Z,98789.50
2022-10-15T16:47:26.294Z,98792.16
2022-10-15T16:49:55.506Z,98795.56
2022-10-15T16:52:22.220Z,98796.28
2022-10-15T16:54:48.941Z,98800.84
2022-10-15T16:57:15.445Z,98793.34
2022-10-15T16:59:41.986Z,98797.91
2022-10-15T17:02:09.908Z,98805.22
2022-10-15T17:04:36.493Z,98809.78
2022-10-15T17:07:03.027Z,98815.94
2022-10-15T17:09:29.670Z,98825.28
2022-10-15T17:11:56.167Z,98829.94
2022-10-15T17:14:22.668Z,98831.88
2022-10-15T17:16:51.587Z,98841.66
2022-10-15T17:19:23.542Z,98854.41
2022-10-15T17:21:50.830Z,98849.63
2022-10-15T17:24:19.330Z,98864.84
2022-10-15T17:26:46.964Z,98847.81
2022-10-15T17:29:20.699Z,98859.16
2022-10-15T17:31:48.379Z,98864.69
2022-10-15T17:34:14.969Z,98865.13
2022-10-15T17:36:47.739Z,98865.94
2022-10-15T17:39:17.883Z,98869.81
2022-10-15T17:41:44.479Z,98877.63
2022-10-15T17:44:11.872Z,98871.41
2022-10-15T17:46:39.067Z,98884.69
2022-10-15T17:49:06.277Z,98879.16
2022-10-15T17:51:33.251Z,98883.78
2022-10-15T17:54:00.403Z,98880.28
2022-10-15T17:56:32.367Z,98886.88
2022-10-15T17:59:00.688Z,98886.88
2022-10-15T18:01:33.717Z,98890.75
2022-10-15T18:04:12.928Z,98902.81
2022-10-15T18:06:44.298Z,98888.34
2022-10-15T18:09:10.841Z,98892.59
2022-10-15T18:11:37.595Z,98900.31
2022-10-15T18:14:04.111Z,98913.94
2022-10-15T18:16:30.812Z,98912.28
2022-10-15T18:18:57.389Z,98915.78
2022-10-15T18:21:27.460Z,98908.72
2022-10-15T18:23:56.520Z,98920.09
2022-10-15T18:26:23.947Z,98910.75
2022-10-15T18:28:52.204Z,98918.50
2022-10-15T18:31:19.746Z,98916.13
2022-10-15T18:33:49.191Z,98913.75
2022-10-15T18:36:18.355Z,98928.19
2022-10-15T18:38:45.183Z,98934.88
2022-10-15T18:41:15.673Z,98936.13
2022-10-15T18:43:42.375Z,98947.16
2022-10-15T18:46:09.424Z,98955.78
2022-10-15T18:48:38.851Z,98953.50
2022-10-15T18:51:08.782Z,98939.50
2022-10-15T18:53:39.527Z,98955.78
2022-10-15T18:56:07.076Z,98957.59
2022-10-15T18:58:33.871Z,98963.72
2022-10-15T19:01:10.566Z,98958.06
2022-10-15T19:03:37.266Z,98965.94
2022-10-15T19:06:03.888Z,98975.69
2022-10-15T19:08:31.137Z,98966.59
2022-10-15T19:11:08.602Z,98965.69
2022-10-15T19:13:36.289Z,98957.88
2022-10-15T19:16:04.504Z,98963.31
2022-10-15T19:18:31.813Z,98954.66
2022-10-15T19:20:58.405Z,98960.00
2022-10-15T19:23:25.063Z,98954.66
2022-10-15T19:25:52.075Z,98951.81
2022-10-15T19:28:18.700Z,98943.09
2022-10-15T19:31:03.254Z,98941.25
2022-10-15T19:33:31.522Z,98951.63
2022-10-15T19:35:58.484Z,98964.31
2022-10-15T19:38:26.342Z,98960.34
2022-10-15T19:40:53.682Z,98955.22
2022-10-15T19:43:22.051Z,98963.31
2022-10-15T19:45:49.075Z,98972.38
2022-10-15T19:48:18.572Z,98968.28
2022-10-15T19:50:46.731Z,98973.50
2022-10-15T19:53:16.449Z,98973.72
2022-10-15T19:55:44.147Z,98986.88
2022-10-15T19:58:10.693Z,98980.97
2022-10-15T20:00:37.253Z,98984.03
2022-10-15T20:03:03.865Z,98985.50
2022-10-15T20:05:30.429Z,98994.13
2022-10-15T20:07:56.948Z,99015.91
2022-10-15T20:10:26.022Z,99024.56
2022-10-15T20:12:53.342Z,99012.97
2022-10-15T20:15:20.056Z,99015.25
2022-10-15T20:17:47.231Z,99021.81
2022-10-15T20:20:13.723Z,99024.56
2022-10-15T20:22:40.261Z,99013.88
2022-10-15T20:25:07.268Z,99033.63
2022-10-15T20:27:33.847Z,99042.00
2022-10-15T20:30:00.360Z,99028.56
2022-10-15T20:32:35.286Z,99040.50
2022-10-15T20:35:04.217Z,99036.00
2022-10-15T20:37:31.101Z,99040.53
2022-10-15T20:42:29.251Z,99048.41
2022-10-15T20:44:55.859Z,99050.22
2022-10-15T20:47:24.053Z,99040.16
2022-10-15T20:49:54.154Z,99033.44
2022-10-15T20:52:22.583Z,99040.00
2022-10-15T20:54:50.307Z,99041.34
2022-10-15T20:57:16.842Z,99049.06
2022-10-15T20:59:43.374Z,99039.63
2022-10-15T21:02:09.957Z,99043.16
2022-10-15T21:04:36.460Z,99033.84
2022-10-15T21:07:02.981Z,99041.09
2022-10-15T21:09:29.479Z,99039.34
2022-10-15T21:11:56.022Z,99039.66
2022-10-15T21:14:22.577Z,99046.59
2022-10-15T21:16:49.152Z,99042.28
2022-10-15T21:19:15.661Z,99053.28
2022-10-15T21:21:42.159Z,99057.13
2022-10-15T21:24:08.704Z,99068.38
2022-10-15T21:26:35.185Z,99063.69
2022-10-15T21:29:01.836Z,99070.28
2022-10-15T21:31:28.535Z,99060.19
2022-10-15T21:33:55.719Z,99057.59
2022-10-15T21:36:27.199Z,99075.50
2022-10-15T21:38:56.395Z,99062.06
2022-10-15T21:41:24.476Z,99067.63
2022-10-15T21:43:51.865Z,99070.81
2022-10-15T21:46:19.026Z,99068.22
2022-10-15T21:48:45.905Z,99066.31
2022-10-15T21:51:17.861Z,99084.22
2022-10-15T21:53:44.615Z,99085.16
2022-10-15T21:56:11.275Z,99093.91
2022-10-15T21:58:39.282Z,99083.97
2022-10-15T22:01:23.449Z,99097.09
2022-10-15T22:03:51.552Z,99099.50
2022-10-15T22:06:19.339Z,99103.81
2022-10-15T22:08:46.633Z,99102.22
2022-10-15T22:11:15.779Z,99091.34
2022-10-15T22:13:44.191Z,99097.25
2022-10-15T22:16:11.640Z,99096.56
2022-10-15T22:18:38.668Z,99095.91
2022-10-15T22:21:15.943Z,99101.81
2022-10-15T22:23:50.004Z,99114.31
2022-10-15T22:26:18.603Z,99128.88
2022-10-15T22:28:46.043Z,99119.25
2022-10-15T22:31:15.123Z,99109.59
2022-10-15T22:33:42.597Z,99112.13
2022-10-15T22:36:18.023Z,99111.31
2022-10-15T22:38:46.532Z,99108.59
2022-10-15T22:41:13.918Z,99106.22
2022-10-15T22:43:40.756Z,99107.38
2022-10-15T22:46:07.906Z,99095.53
2022-10-15T22:48:35.847Z,99098.25
2022-10-15T22:51:03.855Z,99098.25
2022-10-15T22:53:31.440Z,99102.78
2022-10-15T22:56:02.307Z,99101.19
2022-10-15T22:58:31.350Z,99108.22
2022-10-15T23:01:11.159Z,99116.84
2022-10-15T23:03:39.187Z,99117.31
2022-10-15T23:06:06.438Z,99110.28
2022-10-15T23:08:34.394Z,99109.50
2022-10-15T23:11:12.761Z,99108.69
2022-10-15T23:13:40.540Z,99105.28
2022-10-15T23:16:07.136Z,99101.91
2022-10-15T23:18:33.704Z,99098.06
2022-10-15T23:21:11.375Z,99109.41
2022-10-15T23:23:37.857Z,99108.28
2022-10-15T23:26:04.362Z,99094.22
2022-10-15T23:28:30.966Z,99094.22
2022-10-15T23:30:57.535Z,99086.81
2022-10-15T23:33:24.552Z,99095.81
2022-10-15T23:36:04.513Z,99094.88
2022-10-15T23:38:31.259Z,99096.47
2022-10-15T23:41:07.318Z,99100.31
2022-10-15T23:43:34.071Z,99097.47
2022-10-15T23:46:00.853Z,99105.28
2022-10-15T23:48:28.289Z,99112.31
2022-10-15T23:50:59.258Z,99104.97
2022-10-15T23:53:29.142Z,99107.38
2022-10-15T23:55:55.703Z,99102.38
2022-10-15T23:58:22.218Z,99100.56
